createdAt,value
2022-08-07T00:00:55.789Z,0.00
2022-08-07T00:02:41.300Z,0.00
2022-08-07T00:02:55.015Z,0.00
2022-08-07T00:03:55.157Z,0.00
2022-08-07T00:04:54.006Z,0.00
2022-08-07T00:05:54.114Z,0.00
2022-08-07T00:06:53.962Z,0.00
2022-08-07T00:07:58.510Z,0.00
2022-08-07T00:08:54.928Z,0.00
2022-08-07T00:10:04.896Z,0.00
2022-08-07T00:10:57.250Z,0.00
2022-08-07T00:11:58.774Z,0.00
2022-08-07T00:12:57.700Z,0.00
2022-08-07T00:13:55.680Z,0.00
2022-08-07T00:14:53.880Z,0.00
2022-08-07T00:15:53.830Z,0.00
2022-08-07T00:16:53.841Z,0.00
2022-08-07T00:17:53.810Z,0.00
2022-08-07T00:18:53.821Z,0.00
2022-08-07T00:20:01.334Z,0.00
2022-08-07T00:20:54.780Z,0.00
2022-08-07T00:21:57.053Z,0.00
2022-08-07T00:22:55.360Z,0.00
2022-08-07T00:23:53.750Z,0.00
2022-08-07T00:24:53.749Z,0.00
2022-08-07T00:26:00.250Z,0.00
2022-08-07T00:27:06.322Z,0.00
2022-08-07T00:27:56.507Z,0.00
2022-08-07T00:28:55.600Z,0.00
2022-08-07T00:29:53.677Z,0.00
2022-08-07T00:30:53.687Z,0.00
2022-08-07T00:31:53.662Z,0.00
2022-08-07T00:32:53.673Z,0.00
2022-08-07T00:33:54.434Z,0.00
2022-08-07T00:34:53.651Z,0.00
2022-08-07T00:35:53.600Z,0.00
2022-08-07T00:36:53.607Z,0.00
2022-08-07T00:37:54.029Z,0.00
2022-08-07T00:38:53.590Z,0.00
2022-08-07T00:39:54.211Z,0.00
2022-08-07T00:40:53.559Z,0.00
2022-08-07T00:42:02.158Z,0.00
2022-08-07T00:42:54.540Z,0.00
2022-08-07T00:44:01.816Z,0.00
2022-08-07T00:44:55.261Z,0.00
2022-08-07T00:45:53.501Z,0.00
2022-08-07T00:46:53.576Z,0.00
2022-08-07T00:48:07.701Z,0.00
2022-08-07T00:48:54.463Z,0.00
2022-08-07T00:50:21.486Z,0.00
2022-08-07T00:50:56.400Z,0.00
2022-08-07T00:51:57.753Z,0.00
2022-08-07T00:52:54.420Z,0.00
2022-08-07T00:53:56.010Z,0.00
2022-08-07T00:54:54.213Z,0.00
2022-08-07T00:56:00.447Z,0.00
2022-08-07T00:56:54.373Z,0.00
2022-08-07T00:57:55.771Z,0.00
2022-08-07T00:58:53.341Z,0.00
2022-08-07T00:59:53.348Z,0.00
2022-08-07T01:00:54.039Z,0.00
2022-08-07T01:01:53.362Z,0.00
2022-08-07T01:02:53.298Z,0.00
2022-08-07T01:03:57.021Z,0.00
2022-08-07T01:04:54.281Z,0.00
2022-08-07T01:05:53.697Z,0.00
2022-08-07T01:06:53.780Z,0.00
2022-08-07T01:07:53.249Z,0.00
2022-08-07T01:08:55.670Z,0.00
2022-08-07T01:10:05.812Z,0.00
2022-08-07T01:10:56.291Z,0.00
2022-08-07T01:12:23.969Z,0.00
2022-08-07T01:12:54.534Z,0.00
2022-08-07T01:13:55.958Z,0.00
2022-08-07T01:14:57.084Z,0.00
2022-08-07T01:16:00.611Z,0.00
2022-08-07T01:16:54.139Z,0.00
2022-08-07T01:17:53.147Z,0.00
2022-08-07T01:18:53.110Z,0.00
2022-08-07T01:19:54.322Z,0.00
2022-08-07T01:20:58.520Z,0.00
2022-08-07T01:21:55.377Z,0.00
2022-08-07T01:23:00.567Z,0.00
2022-08-07T01:23:54.070Z,0.00
2022-08-07T01:24:53.042Z,0.00
2022-08-07T01:25:55.522Z,0.00
2022-08-07T01:26:53.912Z,0.00
2022-08-07T01:27:53.028Z,0.00
2022-08-07T01:28:52.998Z,0.00
2022-08-07T01:29:53.033Z,0.00
2022-08-07T01:30:52.977Z,0.00
2022-08-07T01:31:52.990Z,0.00
2022-08-07T01:32:52.956Z,0.00
2022-08-07T01:33:55.523Z,0.00
2022-08-07T01:34:52.928Z,0.00
2022-08-07T01:35:54.813Z,0.00
2022-08-07T01:36:57.925Z,0.00
2022-08-07T01:37:52.921Z,0.00
2022-08-07T01:38:52.880Z,0.00
2022-08-07T01:39:53.111Z,0.00
2022-08-07T01:40:52.858Z,0.00
2022-08-07T01:42:01.698Z,0.00
2022-08-07T01:42:58.945Z,0.00
2022-08-07T01:43:53.841Z,0.00
2022-08-07T01:44:52.818Z,0.00
2022-08-07T01:45:54.317Z,0.00
2022-08-07T01:46:52.818Z,0.00
2022-08-07T01:48:20.677Z,0.00
2022-08-07T01:48:53.767Z,0.00
2022-08-07T01:49:53.612Z,0.00
2022-08-07T01:50:52.768Z,0.00
2022-08-07T01:52:02.261Z,0.00
2022-08-07T01:52:54.909Z,0.00
2022-08-07T01:54:06.274Z,0.00
2022-08-07T01:54:53.700Z,0.00
2022-08-07T01:55:52.739Z,0.00
2022-08-07T01:56:52.688Z,0.00
2022-08-07T01:58:05.616Z,0.00
2022-08-07T01:58:53.665Z,0.00
2022-08-07T01:59:52.669Z,0.00
2022-08-07T02:00:52.680Z,0.00
2022-08-07T02:01:59.956Z,0.00
2022-08-07T02:03:19.301Z,0.00
2022-08-07T02:03:53.672Z,0.00
2022-08-07T02:04:56.605Z,0.00
2022-08-07T02:05:59.253Z,0.00
2022-08-07T02:06:53.568Z,0.00
2022-08-07T02:07:52.718Z,0.00
2022-08-07T02:08:54.387Z,0.00
2022-08-07T02:09:58.602Z,0.00
2022-08-07T02:10:54.946Z,0.00
2022-08-07T02:12:03.704Z,0.00
2022-08-07T02:12:53.497Z,0.00
2022-08-07T02:13:57.663Z,0.00
2022-08-07T02:14:53.485Z,0.00
2022-08-07T02:15:53.119Z,0.00
2022-08-07T02:16:52.472Z,0.00
2022-08-07T02:17:52.456Z,0.00
2022-08-07T02:18:52.439Z,0.00
2022-08-07T02:20:04.323Z,0.00
2022-08-07T02:20:57.356Z,0.00
2022-08-07T02:21:56.476Z,0.00
2022-08-07T02:22:55.021Z,0.00
2022-08-07T02:23:52.406Z,0.00
2022-08-07T02:24:52.367Z,0.00
2022-08-07T02:26:31.541Z,0.00
2022-08-07T02:26:53.356Z,0.00
2022-08-07T02:27:53.133Z,0.00
2022-08-07T02:28:52.409Z,0.00
2022-08-07T02:29:54.716Z,0.00
2022-08-07T02:30:52.302Z,0.00
2022-08-07T02:31:52.307Z,0.00
2022-08-07T02:33:04.041Z,0.00
2022-08-07T02:34:01.705Z,0.00
2022-08-07T02:34:53.257Z,0.00
2022-08-07T02:36:28.944Z,0.00
2022-08-07T02:36:53.236Z,0.00
2022-08-07T02:37:52.235Z,0.00
2022-08-07T02:38:57.792Z,0.00
2022-08-07T02:40:02.371Z,0.00
2022-08-07T02:40:55.661Z,0.00
2022-08-07T02:41:54.300Z,0.00
2022-08-07T02:42:52.165Z,0.00
2022-08-07T02:43:52.200Z,0.00
2022-08-07T02:44:52.175Z,0.00
2022-08-07T02:45:59.408Z,0.00
2022-08-07T02:46:53.127Z,0.00
2022-08-07T02:47:52.133Z,0.00
2022-08-07T02:48:54.911Z,0.00
2022-08-07T02:49:59.104Z,0.00
2022-08-07T02:50:53.086Z,0.00
2022-08-07T02:51:52.416Z,0.00
2022-08-07T02:52:52.045Z,0.00
2022-08-07T02:53:52.054Z,0.00
2022-08-07T02:54:52.186Z,0.00
2022-08-07T02:56:03.267Z,0.00
2022-08-07T02:56:53.014Z,0.00
2022-08-07T02:57:52.006Z,0.00
2022-08-07T02:58:54.289Z,0.00
2022-08-07T02:59:54.933Z,0.00
2022-08-07T03:00:53.098Z,0.00
2022-08-07T03:01:52.252Z,0.00
2022-08-07T03:02:55.118Z,0.00
2022-08-07T03:03:51.942Z,0.00
2022-08-07T03:04:52.724Z,0.00
2022-08-07T03:05:51.925Z,0.00
2022-08-07T03:06:51.890Z,0.00
2022-08-07T03:08:05.433Z,0.00
2022-08-07T03:08:52.865Z,0.00
2022-08-07T03:09:52.640Z,0.00
2022-08-07T03:10:51.844Z,0.00
2022-08-07T03:11:57.982Z,0.00
2022-08-07T03:12:52.842Z,0.00
2022-08-07T03:13:51.814Z,0.00
2022-08-07T03:14:52.910Z,0.00
2022-08-07T03:15:56.163Z,0.00
2022-08-07T03:16:52.782Z,0.00
2022-08-07T03:17:52.950Z,0.00
2022-08-07T03:18:51.758Z,0.00
2022-08-07T03:19:54.927Z,0.00
2022-08-07T03:20:52.427Z,0.00
2022-08-07T03:21:51.741Z,0.00
2022-08-07T03:22:51.704Z,0.00
2022-08-07T03:24:19.341Z,0.00
2022-08-07T03:24:52.684Z,0.00
2022-08-07T03:25:58.522Z,0.00
2022-08-07T03:26:59.032Z,0.00
2022-08-07T03:28:09.092Z,0.00
2022-08-07T03:28:52.645Z,0.00
2022-08-07T03:29:51.654Z,0.00
2022-08-07T03:30:51.626Z,0.00
2022-08-07T03:31:51.646Z,4.00
2022-08-07T03:32:58.708Z,4.00
2022-08-07T03:33:52.634Z,0.00
2022-08-07T03:35:17.032Z,0.00
2022-08-07T03:35:52.575Z,4.00
2022-08-07T03:36:51.558Z,4.00
2022-08-07T03:37:53.311Z,4.00
2022-08-07T03:38:51.540Z,4.00
2022-08-07T03:40:13.230Z,4.00
2022-08-07T03:40:57.180Z,8.00
2022-08-07T03:41:53.202Z,8.00
2022-08-07T03:42:51.497Z,8.00
2022-08-07T03:43:57.411Z,8.00
2022-08-07T03:44:53.402Z,12.00
2022-08-07T03:45:52.454Z,12.00
2022-08-07T03:47:13.187Z,16.00
2022-08-07T03:47:52.451Z,20.00
2022-08-07T03:49:02.584Z,20.00
2022-08-07T03:49:53.635Z,24.00
2022-08-07T03:50:55.686Z,24.00
2022-08-07T03:52:01.040Z,28.00
2022-08-07T03:52:52.394Z,32.00
2022-08-07T03:54:33.432Z,36.00
2022-08-07T03:54:54.617Z,44.00
2022-08-07T03:55:57.548Z,44.00
2022-08-07T03:57:03.739Z,52.00
2022-08-07T03:58:34.297Z,56.00
2022-08-07T03:59:09.636Z,60.00
2022-08-07T04:00:01.353Z,68.00
2022-08-07T04:00:54.883Z,76.00
2022-08-07T04:01:52.280Z,84.00
2022-08-07T04:02:51.273Z,88.00
2022-08-07T04:03:55.234Z,92.00
2022-08-07T04:04:51.254Z,104.00
2022-08-07T04:05:51.235Z,112.00
2022-08-07T04:06:52.245Z,120.00
2022-08-07T04:07:52.043Z,128.00
2022-08-07T04:08:51.214Z,140.00
2022-08-07T04:09:51.197Z,152.00
2022-08-07T04:10:54.390Z,160.00
2022-08-07T04:12:27.339Z,172.00
2022-08-07T04:12:52.253Z,180.00
2022-08-07T04:14:10.627Z,192.00
2022-08-07T04:14:52.140Z,200.00
2022-08-07T04:15:51.126Z,216.00
2022-08-07T04:16:58.728Z,228.00
2022-08-07T04:18:56.632Z,240.00
2022-08-07T04:18:59.410Z,252.00
2022-08-07T04:19:54.920Z,260.00
2022-08-07T04:20:54.697Z,272.00
2022-08-07T04:22:05.348Z,288.00
2022-08-07T04:22:53.519Z,296.00
2022-08-07T04:24:05.677Z,312.00
2022-08-07T04:24:52.029Z,324.00
2022-08-07T04:25:51.012Z,336.00
2022-08-07T04:26:51.002Z,344.00
2022-08-07T04:28:00.322Z,356.00
2022-08-07T04:28:51.989Z,368.00
2022-08-07T04:29:58.591Z,376.00
2022-08-07T04:30:56.967Z,388.00
2022-08-07T04:32:09.862Z,396.00
2022-08-07T04:32:57.829Z,404.00
2022-08-07T04:33:54.974Z,416.00
2022-08-07T04:34:51.300Z,428.00
2022-08-07T04:35:51.234Z,440.00
2022-08-07T04:36:50.897Z,448.00
2022-08-07T04:38:03.552Z,460.00
2022-08-07T04:38:51.881Z,468.00
2022-08-07T04:39:51.883Z,476.00
2022-08-07T04:40:52.806Z,488.00
2022-08-07T04:41:51.830Z,500.00
2022-08-07T04:42:51.692Z,516.00
2022-08-07T04:44:10.392Z,524.00
2022-08-07T04:44:54.692Z,536.00
2022-08-07T04:46:01.075Z,552.00
2022-08-07T04:47:04.226Z,560.00
2022-08-07T04:48:01.714Z,572.00
2022-08-07T04:48:51.751Z,580.00
2022-08-07T04:50:04.263Z,588.00
2022-08-07T04:50:52.150Z,600.00
2022-08-07T04:51:51.541Z,608.00
2022-08-07T04:52:51.846Z,624.00
2022-08-07T04:54:05.035Z,636.00
2022-08-07T04:54:51.688Z,648.00
2022-08-07T04:58:12.971Z,664.00
2022-08-07T04:58:13.257Z,668.00
2022-08-07T04:58:24.304Z,656.00
2022-08-07T05:00:11.120Z,684.00
2022-08-07T05:00:51.859Z,692.00
2022-08-07T05:01:51.468Z,700.00
2022-08-07T05:02:50.911Z,712.00
2022-08-07T05:04:06.665Z,720.00
2022-08-07T05:04:51.579Z,732.00
2022-08-07T05:05:52.538Z,764.00
2022-08-07T05:06:53.125Z,812.00
2022-08-07T05:07:51.779Z,852.00
2022-08-07T05:09:01.390Z,884.00
2022-08-07T05:09:51.510Z,912.00
2022-08-07T05:10:50.509Z,932.00
2022-08-07T05:11:57.186Z,940.00
2022-08-07T05:12:53.849Z,956.00
2022-08-07T05:14:53.823Z,964.00
2022-08-07T05:14:59.063Z,972.00
2022-08-07T05:15:51.449Z,984.00
2022-08-07T05:16:53.049Z,996.00
2022-08-07T05:17:54.552Z,1000.00
2022-08-07T05:18:50.444Z,1000.00
2022-08-07T05:19:50.429Z,996.00
2022-08-07T05:20:51.181Z,1008.00
2022-08-07T05:21:59.164Z,1020.00
2022-08-07T05:22:51.387Z,1016.00
2022-08-07T05:23:50.380Z,996.00
2022-08-07T05:24:50.519Z,1004.00
2022-08-07T05:26:10.505Z,1032.00
2022-08-07T05:26:51.345Z,1076.00
2022-08-07T05:28:15.938Z,1100.00
2022-08-07T05:28:51.306Z,1108.00
2022-08-07T05:29:52.049Z,1100.00
2022-08-07T05:30:50.298Z,1100.00
2022-08-07T05:31:52.744Z,1120.00
2022-08-07T05:32:50.269Z,1144.00
2022-08-07T05:34:01.091Z,1172.00
2022-08-07T05:34:51.265Z,1188.00
2022-08-07T05:35:50.229Z,1204.00
2022-08-07T05:36:52.787Z,1212.00
2022-08-07T05:38:08.629Z,1220.00
2022-08-07T05:39:00.461Z,1228.00
2022-08-07T05:40:13.675Z,1232.00
2022-08-07T05:40:52.028Z,1236.00
2022-08-07T05:42:02.472Z,1236.00
2022-08-07T05:42:55.846Z,1240.00
2022-08-07T05:44:12.284Z,1240.00
2022-08-07T05:45:04.532Z,1244.00
2022-08-07T05:45:51.967Z,1244.00
2022-08-07T05:46:51.176Z,1244.00
2022-08-07T05:48:02.038Z,1248.00
2022-08-07T05:48:58.032Z,1248.00
2022-08-07T05:49:51.058Z,1252.00
2022-08-07T05:50:50.583Z,1256.00
2022-08-07T05:51:50.766Z,1256.00
2022-08-07T05:52:50.052Z,1260.00
2022-08-07T05:54:13.643Z,1264.00
2022-08-07T05:54:55.493Z,1268.00
2022-08-07T05:56:03.681Z,1272.00
2022-08-07T05:56:51.686Z,1260.00
2022-08-07T05:57:50.360Z,1248.00
2022-08-07T05:58:52.946Z,1232.00
2022-08-07T05:59:57.715Z,1220.00
2022-08-07T06:00:51.688Z,1212.00
2022-08-07T06:01:50.137Z,1216.00
2022-08-07T06:02:50.590Z,1228.00
2022-08-07T06:03:56.337Z,1248.00
2022-08-07T06:04:50.928Z,1268.00
2022-08-07T06:05:49.870Z,1284.00
2022-08-07T06:06:56.334Z,1292.00
2022-08-07T06:08:13.747Z,1300.00
2022-08-07T06:08:51.585Z,1300.00
2022-08-07T06:10:05.107Z,1300.00
2022-08-07T06:10:52.069Z,1304.00
2022-08-07T06:11:49.813Z,1304.00
2022-08-07T06:12:49.847Z,1308.00
2022-08-07T06:14:13.212Z,1312.00
2022-08-07T06:14:50.788Z,1312.00
2022-08-07T06:15:49.895Z,1316.00
2022-08-07T06:16:50.300Z,1324.00
2022-08-07T06:17:53.733Z,1328.00
2022-08-07T06:18:51.896Z,1336.00
2022-08-07T06:20:03.235Z,1344.00
2022-08-07T06:22:14.545Z,1356.00
2022-08-07T06:22:16.833Z,1360.00
2022-08-07T06:23:02.430Z,1372.00
2022-08-07T06:24:45.691Z,1380.00
2022-08-07T06:24:55.652Z,1388.00
2022-08-07T06:25:54.305Z,1392.00
2022-08-07T06:26:49.688Z,1400.00
2022-08-07T06:28:00.951Z,1400.00
2022-08-07T06:28:50.654Z,1396.00
2022-08-07T06:29:49.609Z,1384.00
2022-08-07T06:30:50.791Z,1380.00
2022-08-07T06:31:50.621Z,1368.00
2022-08-07T06:32:49.571Z,1364.00
2022-08-07T06:33:49.547Z,1356.00
2022-08-07T06:34:49.558Z,1364.00
2022-08-07T06:36:13.194Z,1368.00
2022-08-07T06:36:52.344Z,1372.00
2022-08-07T06:37:49.507Z,1380.00
2022-08-07T06:38:59.415Z,1396.00
2022-08-07T06:40:16.590Z,1416.00
2022-08-07T06:40:51.346Z,1424.00
2022-08-07T06:42:02.250Z,1432.00
2022-08-07T06:42:50.490Z,1436.00
2022-08-07T06:43:59.381Z,1432.00
2022-08-07T06:44:51.237Z,1424.00
2022-08-07T06:45:50.189Z,1412.00
2022-08-07T06:46:53.191Z,1404.00
2022-08-07T06:47:58.531Z,1388.00
2022-08-07T06:48:50.438Z,1384.00
2022-08-07T06:49:52.286Z,1376.00
2022-08-07T06:50:50.369Z,1364.00
2022-08-07T06:51:50.230Z,1360.00
2022-08-07T06:52:52.916Z,1364.00
2022-08-07T06:55:28.554Z,1360.00
2022-08-07T06:55:34.451Z,1364.00
2022-08-07T06:56:00.425Z,1372.00
2022-08-07T06:56:51.187Z,1384.00
2022-08-07T06:57:52.200Z,1408.00
2022-08-07T07:00:12.817Z,1432.00
2022-08-07T07:00:13.789Z,1452.00
2022-08-07T07:00:52.822Z,1452.00
2022-08-07T07:01:50.895Z,1456.00
2022-08-07T07:02:57.375Z,1452.00
2022-08-07T07:03:57.210Z,1448.00
2022-08-07T07:04:55.075Z,1452.00
2022-08-07T07:06:04.937Z,1464.00
2022-08-07T07:07:00.189Z,1476.00
2022-08-07T07:08:00.369Z,1488.00
2022-08-07T07:08:50.199Z,1488.00
2022-08-07T07:09:49.139Z,1476.00
2022-08-07T07:10:54.866Z,1464.00
2022-08-07T07:12:07.890Z,1460.00
2022-08-07T07:12:53.524Z,1460.00
2022-08-07T07:13:58.007Z,1464.00
2022-08-07T07:14:50.103Z,1456.00
2022-08-07T07:15:51.552Z,1452.00
2022-08-07T07:16:51.209Z,1460.00
2022-08-07T07:17:50.541Z,1460.00
2022-08-07T07:18:49.048Z,1448.00
2022-08-07T07:19:57.296Z,1440.00
2022-08-07T07:20:50.175Z,1440.00
2022-08-07T07:22:04.743Z,1444.00
2022-08-07T07:24:06.162Z,1448.00
2022-08-07T07:24:08.128Z,1460.00
2022-08-07T07:24:56.683Z,1456.00
2022-08-07T07:26:33.053Z,1436.00
2022-08-07T07:26:52.367Z,1424.00
2022-08-07T07:27:56.240Z,1416.00
2022-08-07T07:29:38.609Z,1420.00
2022-08-07T07:30:09.277Z,1432.00
2022-08-07T07:30:50.731Z,1436.00
2022-08-07T07:31:48.912Z,1436.00
2022-08-07T07:32:48.901Z,1444.00
2022-08-07T07:33:48.962Z,1440.00
2022-08-07T07:34:49.881Z,1440.00
2022-08-07T07:36:05.219Z,1456.00
2022-08-07T07:36:53.948Z,1472.00
2022-08-07T07:38:02.121Z,1480.00
2022-08-07T07:38:49.830Z,1488.00
2022-08-07T07:39:54.397Z,1500.00
2022-08-07T07:40:50.540Z,1500.00
2022-08-07T07:41:50.851Z,1500.00
2022-08-07T07:42:53.804Z,1496.00
2022-08-07T07:44:16.885Z,1500.00
2022-08-07T07:44:49.880Z,1500.00
2022-08-07T07:46:37.406Z,1500.00
2022-08-07T07:46:55.315Z,1500.00
2022-08-07T07:47:52.634Z,1496.00
2022-08-07T07:48:48.990Z,1500.00
2022-08-07T07:50:33.578Z,1504.00
2022-08-07T07:50:49.681Z,1500.00
2022-08-07T07:51:58.247Z,1496.00
2022-08-07T07:52:49.708Z,1496.00
2022-08-07T07:53:52.670Z,1488.00
2022-08-07T07:54:51.462Z,1492.00
2022-08-07T07:55:57.937Z,1488.00
2022-08-07T07:56:49.713Z,1484.00
2022-08-07T07:57:53.111Z,1496.00
2022-08-07T07:58:50.611Z,1496.00
2022-08-07T07:59:52.869Z,1504.00
2022-08-07T08:00:53.793Z,1500.00
2022-08-07T08:02:03.375Z,1508.00
2022-08-07T08:03:04.781Z,1508.00
2022-08-07T08:04:06.039Z,1512.00
2022-08-07T08:04:50.511Z,1516.00
2022-08-07T08:05:54.870Z,1516.00
2022-08-07T08:06:52.004Z,1516.00
2022-08-07T08:07:59.631Z,1520.00
2022-08-07T08:08:49.911Z,1520.00
2022-08-07T08:09:52.032Z,1520.00
2022-08-07T08:10:49.442Z,1520.00
2022-08-07T08:12:02.715Z,1524.00
2022-08-07T08:12:58.989Z,1524.00
2022-08-07T08:13:53.802Z,1520.00
2022-08-07T08:14:49.541Z,1520.00
2022-08-07T08:15:58.641Z,1520.00
2022-08-07T08:16:50.739Z,1520.00
2022-08-07T08:17:48.381Z,1524.00
2022-08-07T08:18:50.549Z,1520.00
2022-08-07T08:20:16.943Z,1520.00
2022-08-07T08:20:49.367Z,1524.00
2022-08-07T08:21:56.943Z,1528.00
2022-08-07T08:22:55.713Z,1528.00
2022-08-07T08:23:49.324Z,1524.00
2022-08-07T08:24:57.299Z,1532.00
2022-08-07T08:25:49.827Z,1532.00
2022-08-07T08:26:50.602Z,1536.00
2022-08-07T08:27:56.467Z,1536.00
2022-08-07T08:28:49.244Z,1540.00
2022-08-07T08:29:55.470Z,1548.00
2022-08-07T08:30:51.172Z,1552.00
2022-08-07T08:32:17.386Z,1552.00
2022-08-07T08:32:49.954Z,1556.00
2022-08-07T08:33:49.472Z,1556.00
2022-08-07T08:34:48.174Z,1556.00
2022-08-07T08:35:50.047Z,1560.00
2022-08-07T08:36:48.143Z,1560.00
2022-08-07T08:38:00.842Z,1560.00
2022-08-07T08:38:49.126Z,1560.00
2022-08-07T08:39:58.254Z,1564.00
2022-08-07T08:40:49.105Z,1560.00
2022-08-07T08:41:57.804Z,1560.00
2022-08-07T08:42:51.674Z,1564.00
2022-08-07T08:43:58.990Z,1568.00
2022-08-07T08:44:49.102Z,1564.00
2022-08-07T08:45:59.271Z,1572.00
2022-08-07T08:46:49.215Z,1576.00
2022-08-07T08:47:54.845Z,1576.00
2022-08-07T08:48:51.000Z,1576.00
2022-08-07T08:50:04.956Z,1584.00
2022-08-07T08:50:48.987Z,1584.00
2022-08-07T08:52:12.971Z,1588.00
2022-08-07T08:52:53.789Z,1588.00
2022-08-07T08:53:48.965Z,1592.00
2022-08-07T08:54:47.946Z,1596.00
2022-08-07T08:55:55.606Z,1596.00
2022-08-07T08:56:48.916Z,1596.00
2022-08-07T08:57:47.915Z,1596.00
2022-08-07T08:58:50.701Z,1604.00
2022-08-07T08:59:50.327Z,1608.00
2022-08-07T09:00:48.588Z,1608.00
2022-08-07T09:01:49.562Z,1612.00
2022-08-07T09:02:52.257Z,1612.00
2022-08-07T09:03:52.642Z,1616.00
2022-08-07T09:04:48.835Z,1612.00
2022-08-07T09:05:47.837Z,1612.00
2022-08-07T09:06:48.220Z,1616.00
2022-08-07T09:07:58.180Z,1624.00
2022-08-07T09:08:48.787Z,1648.00
2022-08-07T09:09:47.785Z,1636.00
2022-08-07T09:10:48.056Z,1632.00
2022-08-07T09:11:53.578Z,1632.00
2022-08-07T09:12:53.012Z,1632.00
2022-08-07T09:13:49.325Z,1632.00
2022-08-07T09:14:50.870Z,1632.00
2022-08-07T09:16:23.338Z,1632.00
2022-08-07T09:16:48.697Z,1632.00
2022-08-07T09:17:58.940Z,1636.00
2022-08-07T09:18:53.338Z,1632.00
2022-08-07T09:19:53.079Z,1636.00
2022-08-07T09:20:58.398Z,1632.00
2022-08-07T09:22:09.554Z,1636.00
2022-08-07T09:24:32.306Z,1636.00
2022-08-07T09:24:34.081Z,1636.00
2022-08-07T09:24:59.072Z,1636.00
2022-08-07T09:25:54.273Z,1640.00
2022-08-07T09:26:50.925Z,1644.00
2022-08-07T09:28:00.331Z,1644.00
2022-08-07T09:30:01.600Z,1648.00
2022-08-07T09:30:06.562Z,1644.00
2022-08-07T09:30:52.872Z,1640.00
2022-08-07T09:31:49.466Z,1648.00
2022-08-07T09:32:47.529Z,1644.00
2022-08-07T09:33:57.538Z,1648.00
2022-08-07T09:34:53.941Z,1648.00
2022-08-07T09:36:02.675Z,1648.00
2022-08-07T09:36:49.644Z,1648.00
2022-08-07T09:37:48.335Z,1648.00
2022-08-07T09:38:49.937Z,1644.00
2022-08-07T09:39:54.983Z,1644.00
2022-08-07T09:40:50.175Z,1644.00
2022-08-07T09:41:59.055Z,1640.00
2022-08-07T09:42:50.420Z,1640.00
2022-08-07T09:44:05.473Z,1640.00
2022-08-07T09:47:50.786Z,1636.00
2022-08-07T09:47:50.787Z,1640.00
2022-08-07T09:47:51.540Z,1636.00
2022-08-07T09:47:57.800Z,1636.00
2022-08-07T09:50:02.149Z,1640.00
2022-08-07T09:50:02.234Z,1644.00
2022-08-07T09:50:48.337Z,1640.00
2022-08-07T09:52:09.893Z,1644.00
2022-08-07T09:52:48.603Z,1640.00
2022-08-07T09:53:55.096Z,1644.00
2022-08-07T09:54:48.271Z,1644.00
2022-08-07T09:56:02.875Z,1644.00
2022-08-07T09:56:48.254Z,1648.00
2022-08-07T09:57:47.452Z,1644.00
2022-08-07T09:58:48.784Z,1648.00
2022-08-07T10:00:00.718Z,1648.00
2022-08-07T10:00:48.211Z,1648.00
2022-08-07T10:01:51.064Z,1648.00
2022-08-07T10:02:55.866Z,1644.00
2022-08-07T10:04:05.215Z,1644.00
2022-08-07T10:04:53.219Z,1648.00
2022-08-07T10:05:58.986Z,1648.00
2022-08-07T10:06:49.151Z,1648.00
2022-08-07T10:07:52.531Z,1648.00
2022-08-07T10:08:49.618Z,1648.00
2022-08-07T10:10:00.620Z,1644.00
2022-08-07T10:11:16.974Z,1648.00
2022-08-07T10:12:02.248Z,1644.00
2022-08-07T10:12:52.927Z,1644.00
2022-08-07T10:14:01.315Z,1644.00
2022-08-07T10:14:55.073Z,1648.00
2022-08-07T10:15:48.063Z,1648.00
2022-08-07T10:16:47.443Z,1648.00
2022-08-07T10:17:47.199Z,1644.00
2022-08-07T10:18:47.994Z,1644.00
2022-08-07T10:19:47.003Z,1644.00
2022-08-07T10:20:46.989Z,1648.00
2022-08-07T10:22:12.649Z,1644.00
2022-08-07T10:22:51.064Z,1644.00
2022-08-07T10:24:05.582Z,1644.00
2022-08-07T10:24:48.885Z,1648.00
2022-08-07T10:25:47.004Z,1640.00
2022-08-07T10:26:52.955Z,1644.00
2022-08-07T10:27:51.461Z,1640.00
2022-08-07T10:28:49.602Z,1644.00
2022-08-07T10:29:52.013Z,1636.00
2022-08-07T10:30:47.874Z,1632.00
2022-08-07T10:31:47.433Z,1640.00
2022-08-07T10:32:53.153Z,1640.00
2022-08-07T10:34:06.351Z,1640.00
2022-08-07T10:34:47.820Z,1644.00
2022-08-07T10:35:55.613Z,1644.00
2022-08-07T10:36:47.818Z,1644.00
2022-08-07T10:38:00.737Z,1644.00
2022-08-07T10:38:49.008Z,1644.00
2022-08-07T10:40:03.059Z,1640.00
2022-08-07T10:40:47.747Z,1644.00
2022-08-07T10:41:56.784Z,1652.00
2022-08-07T10:42:47.725Z,1652.00
2022-08-07T10:43:46.739Z,1656.00
2022-08-07T10:44:46.796Z,1640.00
2022-08-07T10:45:58.058Z,1644.00
2022-08-07T10:46:47.699Z,1640.00
2022-08-07T10:47:53.105Z,1632.00
2022-08-07T10:48:47.688Z,1652.00
2022-08-07T10:49:50.941Z,1656.00
2022-08-07T10:50:50.287Z,1676.00
2022-08-07T10:52:02.081Z,1676.00
2022-08-07T10:52:48.617Z,1680.00
2022-08-07T10:53:46.634Z,1676.00
2022-08-07T10:54:53.169Z,1680.00
2022-08-07T10:55:47.618Z,1684.00
2022-08-07T10:56:46.907Z,1688.00
2022-08-07T10:57:46.585Z,1684.00
2022-08-07T10:58:47.603Z,1684.00
2022-08-07T10:59:47.414Z,1688.00
2022-08-07T11:00:50.234Z,1692.00
2022-08-07T11:01:52.098Z,1696.00
2022-08-07T11:02:49.132Z,1700.00
2022-08-07T11:03:52.793Z,1700.00
2022-08-07T11:04:47.515Z,1700.00
2022-08-07T11:05:50.891Z,1700.00
2022-08-07T11:06:46.478Z,1696.00
2022-08-07T11:07:58.416Z,1700.00
2022-08-07T11:08:47.444Z,1700.00
2022-08-07T11:10:07.948Z,1712.00
2022-08-07T11:10:55.442Z,1712.00
2022-08-07T11:11:48.248Z,1704.00
2022-08-07T11:12:49.028Z,1704.00
2022-08-07T11:14:46.520Z,1704.00
2022-08-07T11:14:59.735Z,1704.00
2022-08-07T11:15:54.432Z,1708.00
2022-08-07T11:16:51.351Z,1712.00
2022-08-07T11:17:47.774Z,1712.00
2022-08-07T11:18:50.753Z,1728.00
2022-08-07T11:19:46.443Z,1728.00
2022-08-07T11:20:46.300Z,1712.00
2022-08-07T11:21:46.313Z,1716.00
2022-08-07T11:22:46.601Z,1716.00
2022-08-07T11:23:46.300Z,1720.00
2022-08-07T11:24:46.270Z,1724.00
2022-08-07T11:25:49.882Z,1724.00
2022-08-07T11:26:50.148Z,1736.00
2022-08-07T11:28:02.855Z,1724.00
2022-08-07T11:28:53.471Z,1724.00
2022-08-07T11:29:47.457Z,1728.00
2022-08-07T11:30:46.242Z,1728.00
2022-08-07T11:31:46.202Z,1728.00
2022-08-07T11:32:46.283Z,1728.00
2022-08-07T11:33:54.289Z,1736.00
2022-08-07T11:34:47.287Z,1740.00
2022-08-07T11:35:58.881Z,1740.00
2022-08-07T11:36:49.526Z,1736.00
2022-08-07T11:38:10.300Z,1740.00
2022-08-07T11:38:50.402Z,1740.00
2022-08-07T11:40:01.108Z,1744.00
2022-08-07T11:40:49.610Z,1752.00
2022-08-07T11:42:02.192Z,1752.00
2022-08-07T11:42:47.392Z,1752.00
2022-08-07T11:44:10.830Z,1752.00
2022-08-07T11:44:52.442Z,1756.00
2022-08-07T11:45:50.019Z,1748.00
2022-08-07T11:46:48.696Z,1752.00
2022-08-07T11:47:55.940Z,1748.00
2022-08-07T11:49:04.376Z,1748.00
2022-08-07T11:50:11.305Z,1744.00
2022-08-07T11:50:57.480Z,1744.00
2022-08-07T11:51:47.047Z,1744.00
2022-08-07T11:52:46.823Z,1744.00
2022-08-07T11:54:01.166Z,1748.00
2022-08-07T11:54:54.773Z,1752.00
2022-08-07T11:56:09.663Z,1756.00
2022-08-07T11:56:52.326Z,1756.00
2022-08-07T11:57:59.757Z,1760.00
2022-08-07T11:58:49.729Z,1760.00
2022-08-07T12:00:10.493Z,1764.00
2022-08-07T12:00:53.689Z,1768.00
2022-08-07T12:01:59.818Z,1768.00
2022-08-07T12:02:52.617Z,1772.00
2022-08-07T12:03:46.921Z,1772.00
2022-08-07T12:04:45.908Z,1776.00
2022-08-07T12:05:48.826Z,1780.00
2022-08-07T12:06:57.292Z,1780.00
2022-08-07T12:07:53.558Z,1784.00
2022-08-07T12:08:46.825Z,1788.00
2022-08-07T12:09:46.165Z,1792.00
2022-08-07T12:10:45.767Z,1796.00
2022-08-07T12:12:09.220Z,1796.00
2022-08-07T12:12:47.257Z,1800.00
2022-08-07T12:13:47.822Z,1804.00
2022-08-07T12:14:56.496Z,1808.00
2022-08-07T12:16:06.167Z,1812.00
2022-08-07T12:16:46.775Z,1824.00
2022-08-07T12:17:59.629Z,1824.00
2022-08-07T12:18:46.737Z,1832.00
2022-08-07T12:19:56.896Z,1840.00
2022-08-07T12:20:49.374Z,1844.00
2022-08-07T12:22:37.143Z,1844.00
2022-08-07T12:22:58.322Z,1848.00
2022-08-07T12:24:07.674Z,1848.00
2022-08-07T12:24:52.431Z,1844.00
2022-08-07T12:26:03.107Z,1836.00
2022-08-07T12:26:49.298Z,1836.00
2022-08-07T12:28:09.001Z,1832.00
2022-08-07T12:28:49.714Z,1832.00
2022-08-07T12:29:46.558Z,1824.00
2022-08-07T12:30:53.159Z,1812.00